Riley, Michigan
Current Conditions -  °F | °C
As of 8:56 AM on Monday 24 Nov 2014 (Local Time) from KPHN Reporting Station
Overcast Overcast  
Wind Chill: 54°   Ceiling: 2300
Heat Index: 54°   Visibility: 10mi
Dew Point: 52°   Wind: 14mph
Humidity: 94%   Direction: 190°S
Pressure: 29.14"   Gusts: 21mph
Location:  42.9405°N, 82.8034°W
Report Text: KPHN 241356Z AUTO 19012G18KT 10SM SCT008 BKN023 OVC029 12/11 A2914 RMK AO2
Loading
Personal Weather Stations






























Interactive Weather Map New forecast layout! Learn more

10-Day Weather Forecast

Advertisements
Track Severe Weather on mobile